createdAt,value
2017-06-27T00:00:39.915Z,29.23
2017-06-27T00:01:39.878Z,29.21
2017-06-27T00:02:39.967Z,29.19
2017-06-27T00:03:40.009Z,29.15
2017-06-27T00:04:39.728Z,29.18
2017-06-27T00:05:39.437Z,29.21
2017-06-27T00:06:40.394Z,29.19
2017-06-27T00:07:40.139Z,29.09
2017-06-27T00:08:40.148Z,29.18
2017-06-27T00:09:39.878Z,29.21
2017-06-27T00:10:40.223Z,29.12
2017-06-27T00:11:40.242Z,29.18
2017-06-27T00:12:40.273Z,29.09
2017-06-27T00:13:39.685Z,29.15
2017-06-27T00:14:40.030Z,29.12
2017-06-27T00:15:40.067Z,29.09
2017-06-27T00:16:40.656Z,29.09
2017-06-27T00:17:40.433Z,29.16
2017-06-27T00:18:40.149Z,29.06
2017-06-27T00:19:40.497Z,29.05
2017-06-27T00:20:40.218Z,29.05
2017-06-27T00:21:40.233Z,29.08
2017-06-27T00:22:40.580Z,29.08
2017-06-27T00:23:40.316Z,29.09
2017-06-27T00:24:40.654Z,29.16
2017-06-27T00:25:40.375Z,29.15
2017-06-27T00:26:40.396Z,29.06
2017-06-27T00:27:40.420Z,29.09
2017-06-27T00:28:40.770Z,29.08
2017-06-27T00:29:40.807Z,29.08
2017-06-27T00:30:40.514Z,29.04
2017-06-27T00:31:40.868Z,29.04
2017-06-27T00:32:40.888Z,29.05
2017-06-27T00:33:40.614Z,29.08
2017-06-27T00:34:40.953Z,29.06
2017-06-27T00:35:40.984Z,29.02
2017-06-27T00:36:41.016Z,29
2017-06-27T00:37:41.060Z,29.06
2017-06-27T00:38:41.081Z,29.08
2017-06-27T00:39:41.106Z,29.08
2017-06-27T00:40:41.123Z,29.06
2017-06-27T00:41:41.174Z,29
2017-06-27T00:42:40.887Z,28.95
2017-06-27T00:43:40.910Z,28.96
2017-06-27T00:44:41.254Z,28.95
2017-06-27T00:45:40.978Z,28.96
2017-06-27T00:46:41.317Z,29
2017-06-27T00:47:41.038Z,29.05
2017-06-27T00:48:41.386Z,29.11
2017-06-27T00:49:41.406Z,29.06
2017-06-27T00:50:41.444Z,29.09
2017-06-27T00:51:41.481Z,28.95
2017-06-27T00:52:41.507Z,29.05
2017-06-27T00:53:41.218Z,28.95
2017-06-27T00:54:41.254Z,29.08
2017-06-27T00:55:41.288Z,29.06
2017-06-27T00:56:41.627Z,29.08
2017-06-27T00:57:41.657Z,29.05
2017-06-27T00:58:41.698Z,29.04
2017-06-27T00:59:41.402Z,28.93
2017-06-27T01:00:41.444Z,29.04
2017-06-27T01:01:41.452Z,29.06
2017-06-27T01:02:41.494Z,29.05
2017-06-27T01:03:41.838Z,28.98
2017-06-27T01:04:41.879Z,29.08
2017-06-27T01:05:41.896Z,29.02
2017-06-27T01:06:41.625Z,29.02
2017-06-27T01:07:41.962Z,29.04
2017-06-27T01:08:41.674Z,29
2017-06-27T01:09:42.031Z,28.98
2017-06-27T01:10:41.747Z,28.95
2017-06-27T01:11:41.776Z,29.05
2017-06-27T01:12:41.802Z,29.04
2017-06-27T01:13:41.837Z,29.06
2017-06-27T01:14:41.859Z,28.93
2017-06-27T01:15:41.897Z,28.93
2017-06-27T01:16:41.920Z,28.98
2017-06-27T01:17:42.274Z,29.05
2017-06-27T01:18:42.298Z,28.96
2017-06-27T01:19:42.323Z,28.98
2017-06-27T01:20:42.348Z,28.95
2017-06-27T01:21:42.398Z,28.92
2017-06-27T01:22:42.422Z,28.83
2017-06-27T01:23:42.449Z,28.89
2017-06-27T01:24:42.164Z,28.88
2017-06-27T01:25:42.513Z,28.88
2017-06-27T01:26:42.545Z,28.89
2017-06-27T01:27:42.253Z,28.8
2017-06-27T01:28:42.287Z,28.77
2017-06-27T01:29:42.321Z,28.76
2017-06-27T01:30:42.343Z,28.76
2017-06-27T01:31:42.695Z,28.74
2017-06-27T01:32:42.406Z,28.7
2017-06-27T01:33:42.755Z,28.73
2017-06-27T01:34:42.784Z,28.77
2017-06-27T01:35:42.502Z,28.74
2017-06-27T01:36:42.525Z,28.71
2017-06-27T01:37:42.874Z,28.73
2017-06-27T01:38:42.594Z,28.76
2017-06-27T01:39:42.945Z,28.66
2017-06-27T01:40:42.964Z,28.7
2017-06-27T01:41:42.679Z,28.68
2017-06-27T01:42:43.026Z,28.68
2017-06-27T01:43:42.744Z,28.64
2017-06-27T01:44:42.784Z,28.68
2017-06-27T01:45:43.126Z,28.73
2017-06-27T01:46:42.858Z,28.7
2017-06-27T01:47:42.871Z,28.64
2017-06-27T01:48:43.224Z,28.68
2017-06-27T01:49:43.244Z,28.7
2017-06-27T01:50:43.277Z,28.68
2017-06-27T01:51:43.305Z,28.66
2017-06-27T01:52:43.340Z,28.59
2017-06-27T01:53:43.047Z,28.66
2017-06-27T01:54:43.407Z,28.61
2017-06-27T01:55:43.421Z,28.64
2017-06-27T01:56:43.145Z,28.61
2017-06-27T01:57:43.493Z,28.62
2017-06-27T01:58:43.203Z,28.64
2017-06-27T01:59:43.541Z,28.62
2017-06-27T02:00:43.576Z,28.64
2017-06-27T02:01:42.987Z,28.62
2017-06-27T02:02:43.328Z,28.66
2017-06-27T02:03:43.033Z,28.68
2017-06-27T02:04:43.376Z,28.67
2017-06-27T02:05:43.734Z,28.67
2017-06-27T02:06:43.455Z,28.66
2017-06-27T02:07:43.476Z,28.7
2017-06-27T02:08:43.818Z,28.73
2017-06-27T02:09:43.845Z,28.64
2017-06-27T02:10:43.566Z,28.67
2017-06-27T02:11:43.590Z,28.67
2017-06-27T02:12:44.236Z,28.67
2017-06-27T02:13:43.653Z,28.68
2017-06-27T02:14:44.006Z,28.67
2017-06-27T02:15:44.043Z,28.62
2017-06-27T02:16:43.751Z,28.66
2017-06-27T02:17:44.337Z,28.66
2017-06-27T02:18:43.809Z,28.58
2017-06-27T02:19:44.154Z,28.58
2017-06-27T02:20:43.558Z,28.58
2017-06-27T02:21:43.892Z,28.62
2017-06-27T02:22:44.527Z,28.61
2017-06-27T02:23:43.964Z,28.51
2017-06-27T02:24:44.017Z,28.54
2017-06-27T02:25:44.333Z,28.56
2017-06-27T02:26:44.356Z,28.59
2017-06-27T02:27:44.379Z,28.49
2017-06-27T02:28:44.108Z,28.59
2017-06-27T02:29:44.446Z,28.54
2017-06-27T02:30:44.475Z,28.52
2017-06-27T02:31:44.208Z,28.52
2017-06-27T02:32:44.488Z,28.49
2017-06-27T02:33:44.575Z,28.49
2017-06-27T02:34:44.600Z,28.59
2017-06-27T02:35:44.638Z,28.52
2017-06-27T02:36:44.363Z,28.51
2017-06-27T02:37:44.940Z,28.58
2017-06-27T02:38:44.725Z,28.55
2017-06-27T02:39:44.438Z,28.49
2017-06-27T02:40:44.779Z,28.62
2017-06-27T02:41:44.809Z,28.48
2017-06-27T02:42:44.830Z,28.56
2017-06-27T02:43:44.877Z,28.48
2017-06-27T02:44:44.594Z,28.52
2017-06-27T02:45:44.314Z,28.55
2017-06-27T02:46:44.972Z,28.55
2017-06-27T02:47:44.941Z,28.56
2017-06-27T02:48:45.018Z,28.55
2017-06-27T02:49:44.751Z,28.55
2017-06-27T02:50:44.775Z,28.55
2017-06-27T02:51:45.119Z,28.49
2017-06-27T02:52:45.453Z,28.55
2017-06-27T02:53:44.866Z,28.59
2017-06-27T02:54:45.213Z,28.55
2017-06-27T02:55:45.239Z,28.55
2017-06-27T02:56:45.268Z,28.44
2017-06-27T02:57:45.593Z,28.58
2017-06-27T02:58:45.321Z,28.46
2017-06-27T02:59:45.359Z,28.52
2017-06-27T03:00:45.082Z,28.55
2017-06-27T03:01:45.417Z,28.48
2017-06-27T03:02:45.441Z,28.55
2017-06-27T03:03:45.477Z,28.56
2017-06-27T03:04:45.511Z,28.52
2017-06-27T03:05:45.227Z,28.56
2017-06-27T03:06:45.254Z,28.54
2017-06-27T03:07:45.893Z,28.52
2017-06-27T03:08:45.626Z,28.54
2017-06-27T03:09:45.662Z,28.51
2017-06-27T03:10:45.688Z,28.54
2017-06-27T03:11:45.731Z,28.54
2017-06-27T03:12:45.733Z,28.55
2017-06-27T03:13:45.158Z,28.39
2017-06-27T03:14:45.501Z,28.55
2017-06-27T03:15:45.835Z,28.56
2017-06-27T03:16:45.873Z,28.55
2017-06-27T03:17:45.845Z,28.54
2017-06-27T03:18:45.623Z,28.51
2017-06-27T03:19:45.964Z,28.51
2017-06-27T03:20:45.684Z,28.54
2017-06-27T03:21:45.701Z,28.54
2017-06-27T03:22:46.354Z,28.41
2017-06-27T03:23:45.776Z,28.54
2017-06-27T03:24:46.103Z,28.55
2017-06-27T03:25:45.846Z,28.62
2017-06-27T03:26:46.169Z,28.54
2017-06-27T03:27:45.826Z,28.52
2017-06-27T03:28:46.230Z,28.58
2017-06-27T03:29:46.263Z,28.56
2017-06-27T03:30:45.985Z,28.54
2017-06-27T03:31:46.010Z,28.54
2017-06-27T03:32:46.657Z,28.46
2017-06-27T03:33:45.759Z,28.61
2017-06-27T03:34:46.103Z,28.52
2017-06-27T03:35:46.475Z,28.52
2017-06-27T03:36:46.161Z,28.49
2017-06-27T03:37:46.514Z,28.55
2017-06-27T03:38:46.283Z,28.4
2017-06-27T03:39:46.580Z,28.55
2017-06-27T03:40:46.289Z,28.41
2017-06-27T03:41:46.652Z,28.51
2017-06-27T03:42:46.363Z,28.56
2017-06-27T03:43:46.703Z,28.51
2017-06-27T03:44:46.720Z,28.52
2017-06-27T03:45:46.752Z,28.55
2017-06-27T03:46:46.790Z,28.55
2017-06-27T03:47:46.495Z,28.54
2017-06-27T03:48:46.519Z,28.52
2017-06-27T03:49:46.869Z,28.44
2017-06-27T03:50:46.293Z,28.51
2017-06-27T03:51:46.922Z,28.46
2017-06-27T03:52:46.958Z,28.54
2017-06-27T03:53:46.979Z,28.61
2017-06-27T03:54:46.699Z,28.51
2017-06-27T03:55:47.090Z,28.54
2017-06-27T03:56:47.086Z,28.51
2017-06-27T03:57:47.115Z,28.51
2017-06-27T03:58:46.823Z,28.49
2017-06-27T03:59:46.853Z,28.58
2017-06-27T04:00:46.885Z,28.54
2017-06-27T04:01:46.919Z,28.54
2017-06-27T04:02:47.253Z,28.54
2017-06-27T04:03:46.979Z,28.52
2017-06-27T04:04:47.312Z,28.51
2017-06-27T04:05:47.037Z,28.49
2017-06-27T04:06:47.378Z,28.56
2017-06-27T04:07:46.791Z,28.51
2017-06-27T04:08:46.817Z,28.52
2017-06-27T04:09:47.473Z,28.51
2017-06-27T04:10:47.502Z,28.43
2017-06-27T04:11:46.911Z,28.43
2017-06-27T04:12:47.557Z,28.39
2017-06-27T04:13:47.268Z,28.43
2017-06-27T04:14:47.305Z,28.48
2017-06-27T04:15:47.650Z,28.44
2017-06-27T04:16:47.692Z,28.51
2017-06-27T04:17:47.700Z,28.41
2017-06-27T04:18:47.424Z,28.4
2017-06-27T04:19:47.465Z,28.51
2017-06-27T04:20:47.487Z,28.37
2017-06-27T04:21:47.523Z,28.39
2017-06-27T04:22:47.875Z,28.49
2017-06-27T04:23:48.202Z,28.52
2017-06-27T04:24:47.930Z,28.51
2017-06-27T04:25:47.642Z,28.44
2017-06-27T04:26:47.979Z,28.44
2017-06-27T04:27:47.379Z,28.55
2017-06-27T04:28:48.289Z,28.41
2017-06-27T04:29:47.757Z,28.4
2017-06-27T04:30:48.107Z,28.54
2017-06-27T04:31:47.814Z,28.54
2017-06-27T04:32:47.856Z,28.54
2017-06-27T04:33:48.441Z,28.52
2017-06-27T04:34:47.910Z,28.43
2017-06-27T04:35:47.928Z,28.54
2017-06-27T04:36:47.963Z,28.46
2017-06-27T04:37:48.331Z,28.51
2017-06-27T04:38:48.592Z,28.52
2017-06-27T04:39:47.749Z,28.44
2017-06-27T04:40:48.086Z,28.49
2017-06-27T04:41:48.128Z,28.49
2017-06-27T04:42:48.465Z,28.46
2017-06-27T04:43:48.745Z,28.51
2017-06-27T04:44:48.207Z,28.52
2017-06-27T04:45:48.555Z,28.51
2017-06-27T04:46:48.276Z,28.58
2017-06-27T04:47:48.303Z,28.55
2017-06-27T04:48:48.940Z,28.49
2017-06-27T04:49:48.678Z,28.52
2017-06-27T04:50:48.699Z,28.51
2017-06-27T04:51:48.736Z,28.43
2017-06-27T04:52:48.457Z,28.51
2017-06-27T04:53:49.053Z,28.43
2017-06-27T04:54:48.515Z,28.49
2017-06-27T04:55:48.848Z,28.49
2017-06-27T04:56:48.883Z,28.41
2017-06-27T04:57:48.621Z,28.54
2017-06-27T04:58:48.901Z,28.51
2017-06-27T04:59:48.679Z,28.43
2017-06-27T05:00:48.694Z,28.37
2017-06-27T05:01:49.043Z,28.4
2017-06-27T05:02:49.056Z,28.41
2017-06-27T05:03:49.082Z,28.54
2017-06-27T05:04:49.130Z,28.51
2017-06-27T05:05:49.160Z,28.4
2017-06-27T05:06:49.180Z,28.46
2017-06-27T05:07:48.897Z,28.49
2017-06-27T05:08:49.230Z,28.56
2017-06-27T05:09:49.283Z,28.46
2017-06-27T05:10:49.304Z,28.46
2017-06-27T05:11:49.337Z,28.49
2017-06-27T05:12:49.366Z,28.51
2017-06-27T05:13:49.373Z,28.51
2017-06-27T05:14:49.430Z,28.46
2017-06-27T05:15:49.138Z,28.44
2017-06-27T05:16:49.181Z,28.54
2017-06-27T05:17:49.210Z,28.44
2017-06-27T05:18:49.849Z,28.43
2017-06-27T05:19:49.576Z,28.46
2017-06-27T05:20:49.291Z,28.4
2017-06-27T05:21:49.634Z,28.43
2017-06-27T05:22:49.663Z,28.52
2017-06-27T05:23:49.954Z,28.49
2017-06-27T05:24:49.732Z,28.4
2017-06-27T05:25:49.759Z,28.46
2017-06-27T05:26:49.789Z,28.52
2017-06-27T05:27:49.822Z,28.46
2017-06-27T05:28:49.527Z,28.48
2017-06-27T05:29:49.875Z,28.46
2017-06-27T05:30:49.907Z,28.51
2017-06-27T05:31:49.629Z,28.46
2017-06-27T05:32:49.970Z,28.41
2017-06-27T05:33:49.375Z,28.43
2017-06-27T05:34:49.723Z,28.46
2017-06-27T05:35:50.052Z,28.49
2017-06-27T05:36:49.778Z,28.48
2017-06-27T05:37:50.116Z,28.43
2017-06-27T05:38:50.143Z,28.4
2017-06-27T05:39:49.556Z,28.49
2017-06-27T05:40:50.217Z,28.48
2017-06-27T05:41:49.925Z,28.51
2017-06-27T05:42:49.963Z,28.48
2017-06-27T05:43:50.310Z,28.49
2017-06-27T05:44:50.335Z,28.49
2017-06-27T05:45:50.048Z,28.51
2017-06-27T05:46:50.084Z,28.36
2017-06-27T05:47:50.414Z,28.51
2017-06-27T05:48:50.140Z,28.48
2017-06-27T05:49:50.485Z,28.49
2017-06-27T05:50:50.509Z,28.49
2017-06-27T05:51:49.916Z,28.51
2017-06-27T05:52:50.573Z,28.43
2017-06-27T05:53:50.611Z,28.49
2017-06-27T05:54:50.638Z,28.46
2017-06-27T05:55:50.042Z,28.49
2017-06-27T05:56:50.690Z,28.44
2017-06-27T05:57:50.715Z,28.48
2017-06-27T05:58:50.752Z,28.41
2017-06-27T05:59:50.785Z,28.51
2017-06-27T06:00:50.809Z,28.55
2017-06-27T06:01:50.839Z,28.48
2017-06-27T06:02:50.553Z,28.44
2017-06-27T06:03:50.905Z,28.48
2017-06-27T06:04:51.230Z,28.41
2017-06-27T06:05:50.957Z,28.51
2017-06-27T06:06:50.981Z,28.41
2017-06-27T06:07:50.703Z,28.43
2017-06-27T06:08:50.740Z,28.48
2017-06-27T06:09:51.016Z,28.41
2017-06-27T06:10:50.789Z,28.52
2017-06-27T06:11:50.831Z,28.52
2017-06-27T06:12:50.859Z,28.46
2017-06-27T06:13:51.201Z,28.51
2017-06-27T06:14:51.533Z,28.39
2017-06-27T06:15:51.259Z,28.4
2017-06-27T06:16:51.296Z,28.4
2017-06-27T06:17:51.320Z,28.4
2017-06-27T06:18:51.337Z,28.43
2017-06-27T06:19:51.365Z,28.4
2017-06-27T06:20:51.414Z,28.37
2017-06-27T06:21:51.131Z,28.43
2017-06-27T06:22:50.848Z,28.41
2017-06-27T06:23:51.497Z,28.4
2017-06-27T06:24:51.834Z,28.37
2017-06-27T06:25:51.259Z,28.36
2017-06-27T06:26:51.276Z,28.43
2017-06-27T06:27:51.616Z,28.44
2017-06-27T06:28:51.656Z,28.44
2017-06-27T06:29:51.942Z,28.4
2017-06-27T06:30:51.719Z,28.3
2017-06-27T06:31:51.739Z,28.33
2017-06-27T06:32:51.773Z,28.41
2017-06-27T06:33:51.496Z,28.34
2017-06-27T06:34:52.134Z,28.36
2017-06-27T06:35:51.549Z,28.41
2017-06-27T06:36:51.582Z,28.34
2017-06-27T06:37:51.611Z,28.39
2017-06-27T06:38:51.949Z,28.36
2017-06-27T06:39:51.970Z,28.36
2017-06-27T06:40:52.015Z,28.3
2017-06-27T06:41:52.036Z,28.31
2017-06-27T06:42:52.072Z,28.37
2017-06-27T06:43:51.793Z,28.27
2017-06-27T06:44:52.069Z,28.4
2017-06-27T06:45:52.166Z,28.27
2017-06-27T06:46:51.883Z,28.37
2017-06-27T06:47:52.229Z,28.34
2017-06-27T06:48:51.937Z,28.37
2017-06-27T06:49:51.976Z,28.34
2017-06-27T06:50:51.994Z,28.36
2017-06-27T06:51:52.035Z,28.37
2017-06-27T06:52:52.380Z,28.44
2017-06-27T06:53:52.406Z,28.37
2017-06-27T06:54:52.366Z,28.39
2017-06-27T06:55:52.467Z,28.37
2017-06-27T06:56:52.488Z,28.4
2017-06-27T06:57:52.521Z,28.33
2017-06-27T06:58:52.242Z,28.39
2017-06-27T06:59:52.847Z,28.36
2017-06-27T07:00:52.318Z,28.36
2017-06-27T07:01:52.640Z,28.39
2017-06-27T07:02:52.678Z,28.37
2017-06-27T07:03:52.698Z,28.44
2017-06-27T07:04:52.972Z,28.41
2017-06-27T07:05:52.464Z,28.4
2017-06-27T07:06:52.488Z,28.43
2017-06-27T07:07:52.826Z,28.43
2017-06-27T07:08:52.857Z,28.37
2017-06-27T07:09:53.186Z,28.49
2017-06-27T07:10:52.627Z,28.48
2017-06-27T07:11:52.316Z,28.49
2017-06-27T07:12:52.979Z,28.48
2017-06-27T07:13:52.682Z,28.54
2017-06-27T07:14:52.998Z,28.49
2017-06-27T07:15:53.055Z,28.46
2017-06-27T07:16:53.101Z,28.51
2017-06-27T07:17:52.813Z,28.39
2017-06-27T07:18:53.154Z,28.54
2017-06-27T07:19:53.425Z,28.49
2017-06-27T07:20:52.911Z,28.46
2017-06-27T07:21:52.624Z,28.44
2017-06-27T07:22:53.278Z,28.51
2017-06-27T07:23:53.287Z,28.43
2017-06-27T07:24:53.642Z,28.46
2017-06-27T07:25:53.060Z,28.48
2017-06-27T07:26:53.393Z,28.52
2017-06-27T07:27:53.421Z,28.51
2017-06-27T07:28:53.172Z,28.56
2017-06-27T07:29:53.172Z,28.43
2017-06-27T07:30:53.516Z,28.48
2017-06-27T07:31:53.545Z,28.55
2017-06-27T07:32:52.954Z,28.52
2017-06-27T07:33:53.603Z,28.48
2017-06-27T07:34:53.634Z,28.52
2017-06-27T07:35:53.660Z,28.43
2017-06-27T07:36:53.702Z,28.48
2017-06-27T07:37:53.442Z,28.46
2017-06-27T07:38:53.461Z,28.49
2017-06-27T07:39:53.780Z,28.44
2017-06-27T07:40:53.185Z,28.44
2017-06-27T07:41:53.849Z,28.37
2017-06-27T07:42:53.875Z,28.39
2017-06-27T07:43:53.586Z,28.39
2017-06-27T07:44:53.317Z,28.49
2017-06-27T07:45:53.973Z,28.41
2017-06-27T07:46:53.990Z,28.44
2017-06-27T07:47:54.034Z,28.4
2017-06-27T07:48:54.056Z,28.37
2017-06-27T07:49:53.767Z,28.43
2017-06-27T07:50:53.800Z,28.33
2017-06-27T07:51:53.525Z,28.31
2017-06-27T07:52:54.187Z,28.31
2017-06-27T07:53:53.895Z,28.39
2017-06-27T07:54:54.232Z,28.41
2017-06-27T07:55:54.261Z,28.52
2017-06-27T07:56:53.982Z,28.52
2017-06-27T07:57:54.326Z,28.54
2017-06-27T07:58:54.043Z,28.52
2017-06-27T07:59:54.072Z,28.51
2017-06-27T08:00:54.426Z,28.43
2017-06-27T08:01:54.446Z,28.48
2017-06-27T08:02:53.854Z,28.49
2017-06-27T08:03:54.519Z,28.48
2017-06-27T08:04:54.229Z,28.56
2017-06-27T08:05:54.265Z,28.51
2017-06-27T08:06:54.287Z,28.58
2017-06-27T08:07:54.631Z,28.55
2017-06-27T08:08:54.343Z,28.52
2017-06-27T08:09:54.688Z,28.54
2017-06-27T08:10:54.725Z,28.52
2017-06-27T08:11:54.434Z,28.62
2017-06-27T08:12:54.474Z,28.51
2017-06-27T08:13:54.490Z,28.51
2017-06-27T08:14:54.849Z,28.64
2017-06-27T08:15:54.865Z,28.64
2017-06-27T08:16:54.581Z,28.66
2017-06-27T08:17:54.923Z,28.59
2017-06-27T08:18:54.659Z,28.62
2017-06-27T08:19:54.992Z,28.64
2017-06-27T08:20:55.029Z,28.68
2017-06-27T08:21:55.046Z,28.74
2017-06-27T08:22:55.092Z,28.71
2017-06-27T08:23:55.116Z,28.73
2017-06-27T08:24:54.828Z,28.7
2017-06-27T08:25:54.866Z,28.8
2017-06-27T08:26:54.894Z,28.8
2017-06-27T08:27:54.928Z,28.83
2017-06-27T08:28:54.942Z,28.89
2017-06-27T08:29:54.985Z,28.86
2017-06-27T08:30:55.018Z,28.85
2017-06-27T08:31:55.357Z,28.86
2017-06-27T08:32:55.387Z,28.9
2017-06-27T08:33:55.421Z,28.9
2017-06-27T08:34:55.145Z,28.9
2017-06-27T08:35:55.481Z,28.95
2017-06-27T08:36:55.507Z,28.93
2017-06-27T08:37:55.528Z,29
2017-06-27T08:38:55.568Z,28.9
2017-06-27T08:39:55.597Z,28.95
2017-06-27T08:40:55.626Z,28.96
2017-06-27T08:41:55.654Z,28.98
2017-06-27T08:42:55.376Z,29
2017-06-27T08:43:55.413Z,28.98
2017-06-27T08:44:55.437Z,29.02
2017-06-27T08:45:56.099Z,29
2017-06-27T08:46:55.806Z,28.92
2017-06-27T08:47:55.528Z,28.93
2017-06-27T08:48:55.868Z,29.02
2017-06-27T08:49:55.593Z,28.93
2017-06-27T08:50:56.227Z,29.08
2017-06-27T08:51:55.658Z,28.92
2017-06-27T08:52:55.365Z,29.06
2017-06-27T08:53:55.716Z,29.04
2017-06-27T08:54:56.049Z,29
2017-06-27T08:55:56.338Z,28.9
2017-06-27T08:56:55.789Z,29.04
2017-06-27T08:57:55.840Z,28.9
2017-06-27T08:58:56.162Z,29.05
2017-06-27T08:59:56.190Z,29
2017-06-27T09:00:56.491Z,29.04
2017-06-27T09:01:55.959Z,29.02
2017-06-27T09:02:56.291Z,28.96
2017-06-27T09:03:56.328Z,29.05
2017-06-27T09:04:56.366Z,28.96
2017-06-27T09:05:56.331Z,28.96
2017-06-27T09:06:56.416Z,28.96
2017-06-27T09:07:56.453Z,28.98
2017-06-27T09:08:56.475Z,29.04
2017-06-27T09:09:56.507Z,29.02
2017-06-27T09:10:56.798Z,29.06
2017-06-27T09:11:56.277Z,28.95
2017-06-27T09:12:56.605Z,29.04
2017-06-27T09:13:56.634Z,29
2017-06-27T09:14:56.666Z,28.98
2017-06-27T09:15:56.939Z,28.92
2017-06-27T09:16:56.725Z,28.92
2017-06-27T09:17:56.447Z,28.85
2017-06-27T09:18:56.469Z,28.96
2017-06-27T09:19:56.817Z,28.9
2017-06-27T09:20:56.834Z,28.86
2017-06-27T09:21:56.880Z,28.9
2017-06-27T09:22:56.584Z,28.93
2017-06-27T09:23:56.936Z,28.88
2017-06-27T09:24:56.966Z,28.85
2017-06-27T09:25:57.247Z,28.89
2017-06-27T09:26:56.724Z,28.83
2017-06-27T09:27:56.748Z,28.9
2017-06-27T09:28:57.093Z,28.9
2017-06-27T09:29:56.494Z,28.86
2017-06-27T09:30:57.446Z,28.86
2017-06-27T09:31:57.175Z,28.83
2017-06-27T09:32:56.895Z,28.81
2017-06-27T09:33:56.925Z,28.83
2017-06-27T09:34:57.268Z,28.78
2017-06-27T09:35:57.247Z,28.78
2017-06-27T09:36:57.332Z,28.8
2017-06-27T09:37:57.357Z,28.78
2017-06-27T09:38:57.396Z,28.73
2017-06-27T09:39:57.113Z,28.83
2017-06-27T09:40:57.704Z,28.81
2017-06-27T09:41:57.168Z,28.78
2017-06-27T09:42:57.212Z,28.83
2017-06-27T09:43:57.525Z,28.85
2017-06-27T09:44:57.574Z,28.86
2017-06-27T09:45:57.912Z,28.85
2017-06-27T09:46:57.039Z,28.81
2017-06-27T09:47:57.668Z,28.9
2017-06-27T09:48:57.077Z,28.86
2017-06-27T09:49:57.416Z,28.89
2017-06-27T09:50:58.051Z,28.85
2017-06-27T09:51:57.785Z,28.86
2017-06-27T09:52:57.510Z,28.92
2017-06-27T09:53:57.860Z,28.9
2017-06-27T09:54:57.567Z,28.98
2017-06-27T09:55:58.163Z,29.02
2017-06-27T09:56:57.941Z,29.02
2017-06-27T09:57:57.976Z,29.06
2017-06-27T09:58:57.997Z,29.09
2017-06-27T09:59:58.031Z,29.16
2017-06-27T10:00:58.053Z,29.09
2017-06-27T10:01:58.088Z,29.14
2017-06-27T10:02:58.120Z,29.15
2017-06-27T10:03:58.154Z,29.18
2017-06-27T10:04:57.862Z,29.21
2017-06-27T10:05:58.147Z,29.23
2017-06-27T10:06:58.248Z,29.19
2017-06-27T10:07:58.281Z,29.21
2017-06-27T10:08:57.994Z,29.34
2017-06-27T10:09:58.328Z,29.31
2017-06-27T10:10:58.610Z,29.33
2017-06-27T10:11:58.399Z,29.34
2017-06-27T10:12:58.421Z,29.41
2017-06-27T10:13:58.449Z,29.43
2017-06-27T10:14:58.171Z,29.37
2017-06-27T10:15:58.519Z,29.42
2017-06-27T10:16:58.556Z,29.51
2017-06-27T10:17:58.265Z,29.53
2017-06-27T10:18:58.333Z,29.46
2017-06-27T10:19:58.647Z,29.6
2017-06-27T10:20:58.360Z,29.58
2017-06-27T10:21:58.392Z,29.6
2017-06-27T10:22:58.733Z,29.64
2017-06-27T10:23:58.446Z,29.6
2017-06-27T10:24:58.791Z,29.63
2017-06-27T10:25:58.831Z,29.58
2017-06-27T10:26:58.540Z,29.55
2017-06-27T10:27:58.573Z,29.57
2017-06-27T10:28:58.933Z,29.67
2017-06-27T10:29:58.944Z,29.68
2017-06-27T10:30:58.983Z,29.68
2017-06-27T10:31:59.009Z,29.67
2017-06-27T10:32:58.418Z,29.68
2017-06-27T10:33:59.107Z,29.67
2017-06-27T10:34:58.791Z,29.65
2017-06-27T10:35:58.511Z,29.68
2017-06-27T10:36:59.160Z,29.7
2017-06-27T10:37:59.193Z,29.76
2017-06-27T10:38:58.910Z,29.68
2017-06-27T10:39:58.946Z,29.61
2017-06-27T10:40:58.967Z,29.73
2017-06-27T10:41:59.018Z,29.73
2017-06-27T10:42:59.038Z,29.76
2017-06-27T10:43:59.386Z,29.76
2017-06-27T10:44:59.411Z,29.7
2017-06-27T10:45:59.123Z,29.8
2017-06-27T10:46:59.473Z,29.76
2017-06-27T10:47:59.198Z,29.79
2017-06-27T10:48:59.535Z,29.82
2017-06-27T10:49:59.560Z,29.73
2017-06-27T10:50:58.974Z,29.79
2017-06-27T10:51:59.629Z,29.74
2017-06-27T10:52:59.337Z,29.76
2017-06-27T10:53:59.686Z,29.78
2017-06-27T10:54:59.721Z,29.71
2017-06-27T10:55:59.437Z,29.65
2017-06-27T10:56:59.779Z,29.68
2017-06-27T10:57:59.810Z,29.63
2017-06-27T10:58:59.528Z,29.73
2017-06-27T10:59:59.870Z,29.71
2017-06-27T11:00:59.592Z,29.74
2017-06-27T11:02:00.241Z,29.64
2017-06-27T11:02:59.645Z,29.65
2017-06-27T11:04:00.000Z,29.7
2017-06-27T11:04:59.716Z,29.71
2017-06-27T11:06:00.062Z,29.71
2017-06-27T11:07:00.077Z,29.76
2017-06-27T11:07:59.806Z,29.8
2017-06-27T11:08:59.839Z,29.78
2017-06-27T11:10:00.184Z,29.86
2017-06-27T11:11:00.217Z,29.87
2017-06-27T11:12:00.179Z,29.79
2017-06-27T11:13:00.285Z,29.89
2017-06-27T11:14:00.301Z,29.92
2017-06-27T11:15:00.017Z,29.92
2017-06-27T11:16:00.363Z,29.89
2017-06-27T11:17:00.649Z,30
2017-06-27T11:18:00.434Z,29.89
2017-06-27T11:19:00.470Z,30
2017-06-27T11:20:00.492Z,29.98
2017-06-27T11:21:00.209Z,30
2017-06-27T11:22:00.546Z,30.01
2017-06-27T11:23:00.275Z,30
2017-06-27T11:24:00.616Z,29.98
2017-06-27T11:25:00.341Z,29.97
2017-06-27T11:26:00.683Z,29.97
2017-06-27T11:27:00.638Z,30
2017-06-27T11:28:00.747Z,29.97
2017-06-27T11:29:00.760Z,29.98
2017-06-27T11:30:00.804Z,29.97
2017-06-27T11:31:00.837Z,29.97
2017-06-27T11:32:01.162Z,29.95
2017-06-27T11:33:00.895Z,29.95
2017-06-27T11:34:00.928Z,29.9
2017-06-27T11:35:00.955Z,29.9
2017-06-27T11:36:00.669Z,29.92
2017-06-27T11:37:00.979Z,29.97
2017-06-27T11:38:00.734Z,29.95
2017-06-27T11:39:01.079Z,29.9
2017-06-27T11:40:00.805Z,29.89
2017-06-27T11:41:00.833Z,29.79
2017-06-27T11:42:01.106Z,29.85
2017-06-27T11:43:01.234Z,29.82
2017-06-27T11:44:01.234Z,29.8
2017-06-27T11:45:01.260Z,29.82
2017-06-27T11:46:00.985Z,29.85
2017-06-27T11:47:01.586Z,29.83
2017-06-27T11:48:01.358Z,29.79
2017-06-27T11:49:01.070Z,29.71
2017-06-27T11:50:01.442Z,29.78
2017-06-27T11:51:01.142Z,29.74
2017-06-27T11:52:01.491Z,29.71
2017-06-27T11:53:01.207Z,29.76
2017-06-27T11:54:01.546Z,29.71
2017-06-27T11:55:01.568Z,29.58
2017-06-27T11:56:01.614Z,29.64
2017-06-27T11:57:01.321Z,29.65
2017-06-27T11:58:01.361Z,29.6
2017-06-27T11:59:01.697Z,29.57
2017-06-27T12:00:01.734Z,29.57
2017-06-27T12:01:01.766Z,29.64
2017-06-27T12:02:01.480Z,29.57
2017-06-27T12:03:01.825Z,29.61
2017-06-27T12:04:01.535Z,29.51
2017-06-27T12:05:01.564Z,29.49
2017-06-27T12:06:01.915Z,29.49
2017-06-27T12:07:01.622Z,29.51
2017-06-27T12:08:01.983Z,29.41
2017-06-27T12:09:01.701Z,29.48
2017-06-27T12:10:02.040Z,29.41
2017-06-27T12:11:02.066Z,29.45
2017-06-27T12:12:01.786Z,29.46
2017-06-27T12:13:01.816Z,29.43
2017-06-27T12:14:01.857Z,29.45
2017-06-27T12:15:01.878Z,29.37
2017-06-27T12:16:02.251Z,29.48
2017-06-27T12:17:02.262Z,29.46
2017-06-27T12:18:01.967Z,29.39
2017-06-27T12:19:02.000Z,29.48
2017-06-27T12:20:02.349Z,29.41
2017-06-27T12:21:02.385Z,29.39
2017-06-27T12:22:02.096Z,29.37
2017-06-27T12:23:02.131Z,29.45
2017-06-27T12:24:02.468Z,29.43
2017-06-27T12:25:02.499Z,29.45
2017-06-27T12:26:02.536Z,29.42
2017-06-27T12:27:02.256Z,29.41
2017-06-27T12:28:02.597Z,29.41
2017-06-27T12:29:02.625Z,29.41
2017-06-27T12:30:02.334Z,29.45
2017-06-27T12:31:02.703Z,29.37
2017-06-27T12:32:02.719Z,29.45
2017-06-27T12:33:02.744Z,29.41
2017-06-27T12:34:02.773Z,29.43
2017-06-27T12:35:02.800Z,29.42
2017-06-27T12:36:02.838Z,29.51
2017-06-27T12:37:02.547Z,29.45
2017-06-27T12:38:02.577Z,29.52
2017-06-27T12:39:02.623Z,29.51
2017-06-27T12:40:02.962Z,29.46
2017-06-27T12:41:02.993Z,29.41
2017-06-27T12:42:03.027Z,29.58
2017-06-27T12:43:03.056Z,29.43
2017-06-27T12:44:03.082Z,29.45
2017-06-27T12:45:02.793Z,29.53
2017-06-27T12:46:03.146Z,29.52
2017-06-27T12:47:03.163Z,29.51
2017-06-27T12:48:02.896Z,29.58
2017-06-27T12:49:03.234Z,29.57
2017-06-27T12:50:03.271Z,29.63
2017-06-27T12:51:03.291Z,29.64
2017-06-27T12:52:03.007Z,29.63
2017-06-27T12:53:03.356Z,29.6
2017-06-27T12:54:03.080Z,29.71
2017-06-27T12:55:03.409Z,29.71
2017-06-27T12:56:03.147Z,29.64